Masonic Park, Colorado
Current Conditions -  °F | °C
As of 9:10 AM on Monday 22 Dec 2014 (Local Time) from KRCV Reporting Station
Overcast Overcast  
Wind Chill: 26°   Ceiling: 4900
Heat Index: 34°   Visibility: 10mi
Dew Point: 28°   Wind: 12mph
Humidity: 78%   Direction: 290°WNW
Pressure: 29.77"   Gusts: NA
Location:  37.6617°N, 106.617°W
Report Text: KRCV 221610Z AUTO 29010KT 10SM SCT040 BKN049 OVC060 01/M02 A2977 RMK AO2 T00131022
Loading
Personal Weather Stations






























Interactive Weather Map New forecast layout! Learn more

10-Day Weather Forecast

Advertisements
Track Severe Weather on mobile